createdAt,value
2022-08-22T00:00:22.156Z,1.67
2022-08-22T00:02:46.231Z,2.60
2022-08-22T00:02:53.999Z,1.95
2022-08-22T00:02:56.789Z,2.75
2022-08-22T00:02:58.875Z,1.83
2022-08-22T00:02:59.809Z,1.95
2022-08-22T00:03:01.689Z,2.28
2022-08-22T00:03:12.560Z,1.30
2022-08-22T00:03:17.333Z,1.52
2022-08-22T00:06:03.279Z,1.75
2022-08-22T00:08:57.849Z,1.67
2022-08-22T00:11:48.909Z,1.50
2022-08-22T00:14:27.828Z,2.03
2022-08-22T00:17:11.035Z,1.90
2022-08-22T00:19:49.371Z,1.42
2022-08-22T00:22:21.277Z,1.48
2022-08-22T00:25:08.248Z,1.83
2022-08-22T00:27:57.142Z,1.50
2022-08-22T00:30:24.973Z,1.52
2022-08-22T00:33:13.580Z,2.38
2022-08-22T00:35:49.017Z,2.50
2022-08-22T00:38:31.141Z,1.98
2022-08-22T00:41:18.112Z,1.90
2022-08-22T00:44:22.192Z,1.60
2022-08-22T00:47:39.233Z,1.58
2022-08-22T00:50:43.867Z,1.60
2022-08-22T00:53:55.294Z,1.60
2022-08-22T00:56:52.111Z,1.75
2022-08-22T00:59:47.904Z,1.77
2022-08-22T01:02:39.051Z,1.38
2022-08-22T01:05:57.396Z,1.90
2022-08-22T01:08:51.285Z,1.88
2022-08-22T01:11:42.946Z,1.98
2022-08-22T01:14:48.103Z,1.95
2022-08-22T01:17:17.606Z,1.55
2022-08-22T01:20:18.792Z,1.60
2022-08-22T01:23:13.228Z,1.35
2022-08-22T01:25:49.039Z,1.33
2022-08-22T01:28:24.433Z,1.70
2022-08-22T01:31:22.946Z,1.40
2022-08-22T01:34:40.792Z,1.48
2022-08-22T01:37:34.236Z,1.75
2022-08-22T01:40:13.081Z,2.08
2022-08-22T01:43:12.392Z,1.77
2022-08-22T01:46:19.563Z,1.27
2022-08-22T01:48:53.314Z,1.67
2022-08-22T01:51:57.008Z,1.27
2022-08-22T01:54:33.535Z,1.75
2022-08-22T01:57:07.781Z,1.95
2022-08-22T01:59:42.509Z,1.85
2022-08-22T02:02:18.458Z,1.63
2022-08-22T02:04:51.461Z,1.33
2022-08-22T02:07:31.793Z,2.05
2022-08-22T02:10:41.855Z,1.33
2022-08-22T02:13:25.016Z,1.50
2022-08-22T02:16:14.077Z,1.77
2022-08-22T02:18:56.875Z,1.25
2022-08-22T02:21:41.519Z,1.48
2022-08-22T02:24:26.089Z,2.05
2022-08-22T02:27:09.314Z,1.73
2022-08-22T02:29:48.845Z,2.22
2022-08-22T02:32:42.193Z,1.88
2022-08-22T02:35:40.064Z,1.15
2022-08-22T02:38:38.443Z,1.95
2022-08-22T02:41:14.408Z,2.10
2022-08-22T02:43:44.222Z,1.35
2022-08-22T02:46:51.539Z,1.50
2022-08-22T02:49:36.252Z,1.75
2022-08-22T02:52:52.057Z,1.60
2022-08-22T02:55:56.788Z,2.38
2022-08-22T02:58:47.802Z,1.42
2022-08-22T03:01:32.265Z,1.70
2022-08-22T03:04:30.114Z,1.75
2022-08-22T03:07:21.116Z,1.58
2022-08-22T03:10:13.650Z,1.50
2022-08-22T03:12:59.365Z,1.70
2022-08-22T03:15:40.892Z,1.65
2022-08-22T03:18:30.423Z,1.73
2022-08-22T03:21:20.612Z,1.70
2022-08-22T03:24:19.685Z,1.40
2022-08-22T03:26:50.240Z,1.88
2022-08-22T03:29:33.161Z,1.90
2022-08-22T03:34:35.758Z,1.35
2022-08-22T03:37:06.607Z,1.55
2022-08-22T03:39:51.684Z,1.73
2022-08-22T03:42:46.152Z,1.48
2022-08-22T03:45:48.677Z,1.48
2022-08-22T03:48:57.222Z,1.43
2022-08-22T03:51:39.173Z,1.45
2022-08-22T03:54:24.080Z,0.90
2022-08-22T03:57:15.680Z,1.65
2022-08-22T03:59:54.342Z,2.03
2022-08-22T04:02:53.852Z,1.60
2022-08-22T04:05:41.337Z,1.48
2022-08-22T04:08:08.057Z,1.20
2022-08-22T04:10:44.794Z,1.30
2022-08-22T04:13:39.191Z,1.42
2022-08-22T04:16:44.320Z,1.83
2022-08-22T04:19:42.524Z,1.08
2022-08-22T04:22:25.897Z,1.38
2022-08-22T04:25:11.277Z,1.38
2022-08-22T04:28:10.205Z,2.40
2022-08-22T04:30:36.945Z,1.83
2022-08-22T04:33:17.841Z,1.98
2022-08-22T04:36:13.912Z,1.30
2022-08-22T04:39:18.486Z,1.23
2022-08-22T04:41:51.757Z,2.25
2022-08-22T04:44:31.824Z,1.77
2022-08-22T04:47:28.619Z,1.58
2022-08-22T04:50:21.210Z,1.73
2022-08-22T04:53:06.584Z,1.77
2022-08-22T04:56:07.907Z,1.30
2022-08-22T04:58:48.869Z,1.88
2022-08-22T05:01:25.700Z,1.63
2022-08-22T05:04:20.716Z,1.42
2022-08-22T05:06:53.772Z,1.35
2022-08-22T05:09:27.552Z,1.63
2022-08-22T05:12:01.923Z,1.73
2022-08-22T05:14:45.431Z,1.73
2022-08-22T05:17:18.723Z,1.95
2022-08-22T05:19:50.785Z,1.27
2022-08-22T05:22:24.512Z,1.67
2022-08-22T05:24:57.049Z,1.40
2022-08-22T05:27:31.187Z,1.23
2022-08-22T05:30:13.134Z,2.00
2022-08-22T05:32:51.997Z,2.40
2022-08-22T05:35:29.020Z,1.70
2022-08-22T05:37:56.983Z,1.88
2022-08-22T05:40:29.210Z,2.10
2022-08-22T05:42:57.556Z,2.25
2022-08-22T05:45:27.091Z,2.13
2022-08-22T05:48:17.791Z,2.03
2022-08-22T05:50:51.099Z,1.90
2022-08-22T05:53:33.690Z,1.92
2022-08-22T05:56:02.907Z,1.73
2022-08-22T05:58:47.952Z,2.17
2022-08-22T06:01:29.674Z,1.90
2022-08-22T06:04:17.420Z,1.75
2022-08-22T06:07:01.983Z,1.70
2022-08-22T06:09:43.853Z,2.10
2022-08-22T06:12:24.234Z,1.98
2022-08-22T06:14:53.852Z,1.70
2022-08-22T06:17:25.657Z,1.85
2022-08-22T06:19:54.140Z,1.97
2022-08-22T06:22:25.646Z,1.90
2022-08-22T06:24:54.528Z,2.13
2022-08-22T06:27:24.230Z,1.67
2022-08-22T06:29:56.485Z,2.17
2022-08-22T06:32:34.160Z,1.65
2022-08-22T06:35:56.463Z,2.15
2022-08-22T06:38:29.725Z,1.73
2022-08-22T06:41:00.538Z,1.85
2022-08-22T06:43:30.512Z,2.22
2022-08-22T06:45:57.521Z,1.83
2022-08-22T06:48:24.617Z,2.45
2022-08-22T06:50:56.886Z,1.77
2022-08-22T06:53:25.968Z,1.90
2022-08-22T06:55:57.255Z,1.75
2022-08-22T06:58:33.881Z,1.45
2022-08-22T07:01:11.924Z,2.47
2022-08-22T07:03:49.862Z,2.53
2022-08-22T07:06:22.871Z,1.85
2022-08-22T07:08:53.910Z,1.77
2022-08-22T07:11:39.644Z,2.00
2022-08-22T07:14:14.070Z,1.58
2022-08-22T07:16:55.199Z,2.25
2022-08-22T07:19:39.900Z,1.88
2022-08-22T07:22:21.943Z,1.58
2022-08-22T07:24:53.626Z,2.03
2022-08-22T07:27:23.216Z,1.80
2022-08-22T07:30:09.975Z,2.15
2022-08-22T07:33:21.266Z,2.03
2022-08-22T07:35:53.218Z,1.30
2022-08-22T07:38:42.735Z,1.55
2022-08-22T07:41:17.191Z,1.38
2022-08-22T07:43:50.455Z,1.55
2022-08-22T07:46:26.453Z,1.50
2022-08-22T07:49:09.515Z,1.73
2022-08-22T07:51:55.769Z,1.85
2022-08-22T07:54:50.388Z,1.70
2022-08-22T07:57:28.844Z,1.30
2022-08-22T07:59:58.233Z,1.15
2022-08-22T08:02:26.182Z,1.52
2022-08-22T08:04:56.118Z,2.22
2022-08-22T08:07:27.570Z,1.55
2022-08-22T08:10:00.033Z,2.03
2022-08-22T08:12:35.900Z,1.60
2022-08-22T08:15:07.223Z,1.35
2022-08-22T08:17:36.970Z,1.30
2022-08-22T08:20:09.048Z,1.30
2022-08-22T08:22:37.463Z,1.67
2022-08-22T08:25:06.269Z,1.30
2022-08-22T08:27:56.060Z,2.15
2022-08-22T08:30:35.653Z,1.25
2022-08-22T08:33:25.485Z,1.48
2022-08-22T08:36:16.421Z,1.45
2022-08-22T08:39:14.308Z,1.45
2022-08-22T08:42:26.894Z,1.17
2022-08-22T08:45:28.999Z,1.30
2022-08-22T08:48:07.591Z,1.33
2022-08-22T08:50:43.942Z,1.33
2022-08-22T08:53:32.790Z,1.60
2022-08-22T08:56:19.586Z,1.80
2022-08-22T08:59:10.110Z,1.75
2022-08-22T09:01:42.971Z,1.75
2022-08-22T09:04:15.393Z,1.92
2022-08-22T09:09:26.851Z,1.63
2022-08-22T09:12:24.099Z,2.30
2022-08-22T09:15:31.421Z,1.60
2022-08-22T09:20:47.728Z,1.55
2022-08-22T09:23:30.456Z,1.75
2022-08-22T09:26:01.491Z,1.30
2022-08-22T09:29:04.672Z,1.48
2022-08-22T09:31:47.594Z,1.10
2022-08-22T09:34:29.265Z,1.92
2022-08-22T09:37:20.845Z,1.55
2022-08-22T09:40:13.352Z,1.58
2022-08-22T09:42:48.584Z,1.10
2022-08-22T09:45:55.721Z,1.65
2022-08-22T09:48:26.622Z,1.70
2022-08-22T09:51:32.337Z,1.55
2022-08-22T09:53:59.978Z,1.88
2022-08-22T09:56:37.620Z,1.45
2022-08-22T09:59:33.554Z,1.33
2022-08-22T10:02:16.882Z,1.48
2022-08-22T10:04:44.000Z,0.77
2022-08-22T10:07:51.515Z,1.33
2022-08-22T10:10:31.276Z,1.45
2022-08-22T10:13:29.512Z,1.20
2022-08-22T10:16:13.756Z,1.02
2022-08-22T10:19:00.698Z,1.30
2022-08-22T10:21:48.701Z,0.90
2022-08-22T10:24:25.241Z,1.48
2022-08-22T10:27:01.696Z,1.08
2022-08-22T10:29:40.234Z,0.95
2022-08-22T10:32:36.227Z,1.20
2022-08-22T10:35:28.474Z,1.45
2022-08-22T10:38:12.387Z,0.55
2022-08-22T10:41:00.383Z,1.17
2022-08-22T10:43:56.519Z,0.90
2022-08-22T10:46:30.988Z,0.80
2022-08-22T10:49:05.764Z,0.63
2022-08-22T10:51:40.522Z,1.70
2022-08-22T10:54:31.386Z,1.35
2022-08-22T10:57:22.586Z,1.17
2022-08-22T11:00:06.640Z,1.55
2022-08-22T11:02:57.771Z,1.10
2022-08-22T11:05:42.639Z,1.02
2022-08-22T11:08:15.684Z,1.42
2022-08-22T11:11:11.049Z,0.95
2022-08-22T11:13:54.807Z,0.70
2022-08-22T11:16:45.581Z,0.75
2022-08-22T11:19:49.844Z,1.05
2022-08-22T11:22:35.036Z,1.17
2022-08-22T11:25:38.775Z,1.17
2022-08-22T11:28:28.855Z,0.98
2022-08-22T11:31:13.819Z,1.25
2022-08-22T11:33:58.199Z,0.70
2022-08-22T11:36:53.199Z,0.90
2022-08-22T11:39:52.560Z,0.82
2022-08-22T11:42:33.295Z,0.90
2022-08-22T11:45:05.016Z,1.10
2022-08-22T11:47:40.300Z,1.27
2022-08-22T11:50:16.256Z,0.98
2022-08-22T11:52:52.069Z,0.80
2022-08-22T11:55:21.672Z,1.27
2022-08-22T11:57:57.084Z,1.27
2022-08-22T12:00:29.739Z,1.08
2022-08-22T12:03:26.788Z,1.80
2022-08-22T12:06:12.490Z,1.77
2022-08-22T12:08:49.454Z,1.27
2022-08-22T12:11:34.493Z,1.42
2022-08-22T12:14:06.961Z,1.70
2022-08-22T12:19:32.696Z,1.58
2022-08-22T12:22:44.331Z,1.83
2022-08-22T12:25:35.931Z,1.10
2022-08-22T12:28:15.826Z,1.27
2022-08-22T12:30:54.673Z,1.48
2022-08-22T12:33:44.148Z,1.02
2022-08-22T12:36:29.715Z,1.25
2022-08-22T12:39:30.226Z,1.50
2022-08-22T12:42:11.848Z,1.58
2022-08-22T12:45:35.981Z,5.03
2022-08-22T12:48:13.301Z,1.65
2022-08-22T12:50:54.671Z,1.67
2022-08-22T12:53:45.636Z,1.50
2022-08-22T12:56:47.289Z,1.35
2022-08-22T12:59:17.886Z,0.98
2022-08-22T13:01:48.048Z,1.20
2022-08-22T13:04:19.226Z,0.82
2022-08-22T13:07:07.402Z,1.05
2022-08-22T13:09:40.641Z,1.55
2022-08-22T13:12:24.299Z,1.20
2022-08-22T13:14:55.685Z,1.08
2022-08-22T13:17:25.290Z,0.75
2022-08-22T13:20:03.771Z,1.10
2022-08-22T13:22:35.318Z,0.70
2022-08-22T13:25:26.165Z,0.95
2022-08-22T13:28:04.160Z,0.98
2022-08-22T13:30:41.425Z,0.68
2022-08-22T13:33:48.121Z,1.00
2022-08-22T13:36:20.311Z,0.88
2022-08-22T13:39:12.192Z,0.90
2022-08-22T13:41:49.087Z,1.00
2022-08-22T13:44:36.606Z,0.75
2022-08-22T13:47:16.942Z,0.60
2022-08-22T13:49:54.910Z,0.90
2022-08-22T13:52:32.625Z,0.68
2022-08-22T13:55:29.489Z,1.08
2022-08-22T13:58:25.013Z,1.45
2022-08-22T14:01:31.124Z,0.80
2022-08-22T14:04:28.785Z,1.25
2022-08-22T14:06:59.083Z,1.02
2022-08-22T14:09:30.719Z,0.77
2022-08-22T14:12:21.007Z,1.25
2022-08-22T14:15:02.635Z,1.45
2022-08-22T14:17:42.638Z,1.38
2022-08-22T14:20:32.016Z,1.70
2022-08-22T14:23:29.229Z,1.13
2022-08-22T14:25:57.400Z,1.45
2022-08-22T14:28:32.328Z,1.50
2022-08-22T14:31:14.349Z,1.45
2022-08-22T14:33:51.123Z,1.90
2022-08-22T14:36:49.714Z,1.23
2022-08-22T14:39:32.817Z,1.17
2022-08-22T14:42:15.318Z,1.95
2022-08-22T14:44:52.559Z,1.40
2022-08-22T14:47:54.936Z,1.75
2022-08-22T14:50:40.559Z,2.08
2022-08-22T14:53:26.155Z,1.70
2022-08-22T14:56:05.453Z,1.52
2022-08-22T14:58:47.781Z,2.15
2022-08-22T15:01:21.706Z,1.50
2022-08-22T15:04:02.584Z,1.70
2022-08-22T15:06:36.075Z,1.52
2022-08-22T15:09:25.462Z,1.60
2022-08-22T15:11:53.420Z,1.08
2022-08-22T15:14:28.866Z,1.08
2022-08-22T15:16:59.734Z,1.33
2022-08-22T15:19:27.229Z,0.98
2022-08-22T15:22:14.882Z,1.02
2022-08-22T15:25:07.284Z,1.30
2022-08-22T15:27:45.216Z,1.10
2022-08-22T15:30:16.565Z,1.05
2022-08-22T15:32:49.025Z,1.10
2022-08-22T15:35:30.868Z,1.20
2022-08-22T15:38:06.636Z,0.70
2022-08-22T15:40:42.713Z,0.80
2022-08-22T15:43:24.292Z,0.88
2022-08-22T15:46:09.972Z,1.00
2022-08-22T15:49:01.890Z,0.60
2022-08-22T15:51:53.193Z,0.88
2022-08-22T15:54:24.753Z,0.90
2022-08-22T15:59:48.081Z,0.90
2022-08-22T16:02:35.703Z,0.97
2022-08-22T16:05:11.634Z,0.80
2022-08-22T16:07:41.266Z,1.00
2022-08-22T16:10:23.007Z,1.02
2022-08-22T16:13:16.161Z,1.77
2022-08-22T16:15:54.083Z,1.00
2022-08-22T16:18:39.414Z,0.90
2022-08-22T16:21:10.822Z,0.80
2022-08-22T16:23:46.645Z,0.88
2022-08-22T16:26:18.225Z,1.10
2022-08-22T16:28:59.066Z,0.93
2022-08-22T16:31:27.415Z,1.30
2022-08-22T16:34:18.945Z,1.17
2022-08-22T16:37:18.027Z,1.40
2022-08-22T16:39:50.452Z,1.25
2022-08-22T16:42:23.225Z,0.82
2022-08-22T16:45:08.576Z,1.10
2022-08-22T16:47:41.573Z,0.98
2022-08-22T16:50:23.363Z,1.50
2022-08-22T16:52:53.383Z,0.90
2022-08-22T16:55:29.423Z,1.40
2022-08-22T16:58:17.624Z,1.70
2022-08-22T17:00:50.282Z,2.28
2022-08-22T17:03:32.391Z,1.48
2022-08-22T17:06:32.371Z,1.20
2022-08-22T17:09:24.730Z,1.08
2022-08-22T17:12:10.057Z,1.20
2022-08-22T17:14:58.380Z,1.08
2022-08-22T17:17:46.950Z,0.80
2022-08-22T17:20:28.841Z,0.85
2022-08-22T17:23:21.998Z,1.05
2022-08-22T17:25:55.645Z,1.08
2022-08-22T17:28:34.706Z,1.00
2022-08-22T17:31:07.560Z,1.08
2022-08-22T17:34:02.716Z,1.20
2022-08-22T17:36:41.673Z,1.08
2022-08-22T17:39:42.254Z,1.35
2022-08-22T17:42:28.060Z,1.77
2022-08-22T17:45:33.116Z,1.80
2022-08-22T17:48:12.366Z,1.60
2022-08-22T17:51:00.801Z,2.33
2022-08-22T17:53:33.002Z,1.52
2022-08-22T17:56:27.173Z,0.93
2022-08-22T17:59:13.361Z,1.63
2022-08-22T18:01:49.319Z,1.05
2022-08-22T18:04:25.403Z,0.80
2022-08-22T18:07:01.058Z,1.10
2022-08-22T18:09:53.659Z,1.33
2022-08-22T18:12:45.695Z,1.42
2022-08-22T18:15:32.200Z,1.98
2022-08-22T18:18:08.145Z,5.38
2022-08-22T18:20:51.521Z,3.90
2022-08-22T18:23:36.224Z,1.80
2022-08-22T18:26:27.064Z,1.60
2022-08-22T18:29:15.736Z,2.67
2022-08-22T18:31:51.252Z,1.10
2022-08-22T18:34:30.033Z,1.27
2022-08-22T18:37:07.478Z,1.33
2022-08-22T18:39:45.140Z,1.33
2022-08-22T18:42:28.260Z,0.98
2022-08-22T18:44:55.138Z,0.90
2022-08-22T18:47:27.023Z,0.90
2022-08-22T18:49:57.112Z,1.02
2022-08-22T18:52:26.955Z,0.60
2022-08-22T18:55:02.880Z,0.80
2022-08-22T18:58:00.990Z,0.90
2022-08-22T19:00:49.197Z,0.63
2022-08-22T19:03:44.043Z,0.90
2022-08-22T19:06:20.164Z,0.95
2022-08-22T19:09:25.301Z,1.48
2022-08-22T19:12:07.515Z,1.30
2022-08-22T19:15:08.159Z,1.10
2022-08-22T19:18:08.839Z,1.48
2022-08-22T19:20:57.714Z,1.13
2022-08-22T19:23:40.706Z,0.80
2022-08-22T19:26:33.697Z,1.10
2022-08-22T19:29:24.322Z,1.10
2022-08-22T19:31:54.650Z,1.15
2022-08-22T19:34:32.058Z,0.90
2022-08-22T19:37:33.039Z,0.70
2022-08-22T19:40:11.435Z,0.47
2022-08-22T19:42:42.895Z,0.90
2022-08-22T19:45:18.699Z,0.98
2022-08-22T19:47:56.678Z,1.08
2022-08-22T19:50:23.647Z,0.95
2022-08-22T19:52:59.411Z,1.17
2022-08-22T19:55:49.415Z,1.30
2022-08-22T19:58:32.640Z,0.70
2022-08-22T20:01:04.680Z,1.30
2022-08-22T20:03:44.944Z,1.50
2022-08-22T20:06:43.089Z,2.20
2022-08-22T20:09:35.195Z,1.00
2022-08-22T20:12:22.063Z,0.80
2022-08-22T20:14:50.045Z,1.10
2022-08-22T20:17:26.195Z,0.90
2022-08-22T20:20:17.695Z,0.93
2022-08-22T20:22:52.739Z,0.90
2022-08-22T20:25:43.508Z,0.82
2022-08-22T20:28:47.191Z,1.00
2022-08-22T20:31:23.975Z,0.60
2022-08-22T20:34:03.232Z,0.55
2022-08-22T20:36:31.124Z,0.60
2022-08-22T20:39:07.232Z,0.65
2022-08-22T20:41:39.920Z,0.68
2022-08-22T20:44:12.681Z,0.88
2022-08-22T20:46:53.589Z,0.80
2022-08-22T20:49:26.551Z,0.95
2022-08-22T20:51:58.362Z,0.93
2022-08-22T20:54:30.183Z,0.63
2022-08-22T20:57:01.877Z,1.20
2022-08-22T20:59:37.137Z,0.73
2022-08-22T21:02:10.251Z,1.00
2022-08-22T21:04:52.713Z,0.93
2022-08-22T21:10:22.837Z,1.27
2022-08-22T21:13:05.258Z,1.30
2022-08-22T21:15:41.674Z,0.90
2022-08-22T21:18:11.574Z,0.90
2022-08-22T21:20:39.045Z,0.98
2022-08-22T21:23:12.042Z,1.08
2022-08-22T21:25:55.130Z,0.85
2022-08-22T21:28:55.045Z,1.00
2022-08-22T21:31:25.582Z,0.65
2022-08-22T21:33:54.930Z,0.98
2022-08-22T21:36:27.662Z,0.80
2022-08-22T21:39:01.877Z,0.80
2022-08-22T21:41:49.799Z,0.73
2022-08-22T21:44:23.562Z,0.65
2022-08-22T21:46:50.496Z,0.60
2022-08-22T21:49:29.513Z,0.45
2022-08-22T21:51:56.660Z,1.13
2022-08-22T21:54:27.937Z,0.70
2022-08-22T21:57:10.050Z,0.90
2022-08-22T21:59:51.895Z,0.70
2022-08-22T22:02:37.873Z,0.50
2022-08-22T22:05:10.021Z,0.63
2022-08-22T22:07:41.336Z,1.10
2022-08-22T22:10:10.435Z,0.77
2022-08-22T22:12:42.392Z,0.70
2022-08-22T22:15:12.700Z,0.82
2022-08-22T22:17:39.624Z,0.80
2022-08-22T22:20:07.841Z,0.60
2022-08-22T22:22:37.048Z,0.80
2022-08-22T22:25:40.704Z,0.77
2022-08-22T22:28:03.639Z,0.50
2022-08-22T22:30:30.468Z,0.50
2022-08-22T22:32:57.969Z,0.43
2022-08-22T22:35:24.844Z,0.77
2022-08-22T22:37:51.893Z,0.35
2022-08-22T22:40:19.112Z,0.40
2022-08-22T22:42:46.089Z,0.80
2022-08-22T22:45:12.859Z,0.93
2022-08-22T22:47:39.673Z,0.50
2022-08-22T22:50:07.271Z,1.10
2022-08-22T22:52:35.017Z,0.60
2022-08-22T22:55:08.773Z,0.65
2022-08-22T22:57:42.557Z,0.73
2022-08-22T23:00:12.852Z,0.70
2022-08-22T23:02:40.540Z,0.85
2022-08-22T23:05:10.048Z,0.60
2022-08-22T23:07:38.392Z,0.60
2022-08-22T23:10:07.155Z,0.70
2022-08-22T23:12:36.500Z,0.73
2022-08-22T23:15:04.851Z,0.80
2022-08-22T23:17:31.891Z,0.68
2022-08-22T23:19:58.822Z,0.40
2022-08-22T23:22:25.704Z,0.50
2022-08-22T23:24:52.687Z,0.32
2022-08-22T23:27:19.511Z,0.40
2022-08-22T23:29:46.735Z,0.40
2022-08-22T23:32:14.500Z,0.80
2022-08-22T23:34:46.419Z,0.70
2022-08-22T23:37:19.261Z,0.65
2022-08-22T23:39:46.814Z,0.80
2022-08-22T23:42:15.415Z,0.73
2022-08-22T23:44:45.100Z,0.70
2022-08-22T23:47:13.533Z,0.70
2022-08-22T23:49:41.706Z,0.85
2022-08-22T23:52:09.982Z,0.60
2022-08-22T23:54:36.986Z,0.70
2022-08-22T23:57:11.554Z,0.60
2022-08-22T23:59:42.346Z,0.50
